createdAt,value
2022-10-05T00:02:20.182Z,99260.22
2022-10-05T00:04:48.481Z,99252.84
2022-10-05T00:07:19.744Z,99248.22
2022-10-05T00:09:57.622Z,99249.03
2022-10-05T00:12:24.944Z,99251.75
2022-10-05T00:14:53.805Z,99262.69
2022-10-05T00:17:22.186Z,99261.06
2022-10-05T00:19:52.534Z,99243.19
2022-10-05T00:22:24.176Z,99257.91
2022-10-05T00:24:55.243Z,99249.13
2022-10-05T00:27:25.971Z,99244.69
2022-10-05T00:29:54.220Z,99254.78
2022-10-05T00:32:21.335Z,99250.38
2022-10-05T00:34:48.249Z,99245.16
2022-10-05T00:37:15.269Z,99237.16
2022-10-05T00:39:42.193Z,99233.00
2022-10-05T00:42:27.407Z,99234.28
2022-10-05T00:45:47.809Z,99226.91
2022-10-05T00:48:26.761Z,99231.13
2022-10-05T00:51:24.462Z,99229.81
2022-10-05T00:54:09.288Z,99218.88
2022-10-05T00:56:47.092Z,99210.88
2022-10-05T01:00:04.835Z,99212.78
2022-10-05T01:02:49.744Z,99209.22
2022-10-05T01:05:22.494Z,99204.00
2022-10-05T01:08:09.396Z,99204.22
2022-10-05T01:11:03.467Z,99189.94
2022-10-05T01:14:06.123Z,99175.66
2022-10-05T01:17:04.570Z,99184.91
2022-10-05T01:19:58.363Z,99184.09
2022-10-05T01:23:33.867Z,99182.66
2022-10-05T01:26:05.993Z,99178.25
2022-10-05T01:28:38.162Z,99184.81
2022-10-05T01:31:05.333Z,99187.53
2022-10-05T01:33:50.083Z,99190.28
2022-10-05T01:36:40.638Z,99196.34
2022-10-05T01:39:25.431Z,99200.50
2022-10-05T01:42:29.267Z,99205.97
2022-10-05T01:45:08.263Z,99214.41
2022-10-05T01:47:56.333Z,99217.13
2022-10-05T01:51:05.172Z,99213.56
2022-10-05T01:53:50.257Z,99214.63
2022-10-05T01:56:41.481Z,99211.91
2022-10-05T01:59:19.152Z,99196.81
2022-10-05T02:01:58.721Z,99198.91
2022-10-05T02:07:48.588Z,99177.53
2022-10-05T02:10:19.216Z,99175.84
2022-10-05T02:12:46.379Z,99167.84
2022-10-05T02:15:15.955Z,99171.91
2022-10-05T02:17:46.198Z,99169.38
2022-10-05T02:20:17.889Z,99162.88
2022-10-05T02:22:49.665Z,99172.53
2022-10-05T02:25:18.296Z,99181.31
2022-10-05T02:27:58.671Z,99172.06
2022-10-05T02:30:25.694Z,99168.47
2022-10-05T02:32:58.711Z,99162.19
2022-10-05T02:35:25.649Z,99163.84
2022-10-05T02:37:59.423Z,99162.41
2022-10-05T02:40:38.425Z,99157.75
2022-10-05T02:43:26.849Z,99160.13
2022-10-05T02:45:59.741Z,99155.50
2022-10-05T02:48:51.040Z,99152.78
2022-10-05T02:51:28.930Z,99141.00
2022-10-05T02:54:33.981Z,99147.53
2022-10-05T02:57:26.746Z,99151.56
2022-10-05T03:00:01.045Z,99148.84
2022-10-05T03:02:40.536Z,99154.53
2022-10-05T03:05:20.702Z,99165.69
2022-10-05T03:08:10.356Z,99172.81
2022-10-05T03:10:43.840Z,99175.31
2022-10-05T03:13:25.307Z,99172.38
2022-10-05T03:16:29.731Z,99182.22
2022-10-05T03:19:03.277Z,99190.41
2022-10-05T03:21:38.762Z,99202.44
2022-10-05T03:24:16.825Z,99194.25
2022-10-05T03:27:01.936Z,99205.38
2022-10-05T03:29:42.824Z,99205.38
2022-10-05T03:32:09.644Z,99212.75
2022-10-05T03:34:38.893Z,99210.22
2022-10-05T03:37:28.317Z,99209.44
2022-10-05T03:40:01.198Z,99217.63
2022-10-05T03:42:34.555Z,99213.44
2022-10-05T03:45:29.511Z,99218.91
2022-10-05T03:48:04.251Z,99229.00
2022-10-05T03:50:55.856Z,99200.81
2022-10-05T03:53:24.119Z,99190.38
2022-10-05T03:56:12.463Z,99195.00
2022-10-05T03:58:41.181Z,99179.44
2022-10-05T04:01:10.913Z,99161.16
2022-10-05T04:03:49.392Z,99154.63
2022-10-05T04:06:22.755Z,99149.16
2022-10-05T04:08:54.466Z,99150.44
2022-10-05T04:11:33.897Z,99150.06
2022-10-05T04:14:23.987Z,99141.25
2022-10-05T04:16:56.556Z,99137.94
2022-10-05T04:19:52.122Z,99130.78
2022-10-05T04:22:32.616Z,99137.94
2022-10-05T04:25:03.930Z,99136.25
2022-10-05T04:27:39.369Z,99143.84
2022-10-05T04:30:09.715Z,99144.66
2022-10-05T04:32:39.278Z,99157.75
2022-10-05T04:35:38.376Z,99152.88
2022-10-05T04:38:46.876Z,99161.06
2022-10-05T04:41:31.852Z,99166.78
2022-10-05T04:44:17.211Z,99169.50
2022-10-05T04:47:05.726Z,99171.41
2022-10-05T04:49:44.477Z,99169.25
2022-10-05T04:52:40.386Z,99169.03
2022-10-05T04:55:29.386Z,99164.41
2022-10-05T04:58:10.620Z,99160.84
2022-10-05T05:00:48.294Z,99153.69
2022-10-05T05:03:40.472Z,99150.97
2022-10-05T05:06:32.537Z,99153.13
2022-10-05T05:09:45.939Z,99160.69
2022-10-05T05:12:25.445Z,99152.50
2022-10-05T05:15:02.804Z,99152.50
2022-10-05T05:18:02.104Z,99160.69
2022-10-05T05:20:47.325Z,99164.47
2022-10-05T05:23:41.304Z,99167.22
2022-10-05T05:26:43.547Z,99144.75
2022-10-05T05:29:34.725Z,99158.66
2022-10-05T05:32:08.599Z,99151.28
2022-10-05T05:34:41.884Z,99148.56
2022-10-05T05:37:41.243Z,99133.84
2022-10-05T05:40:18.353Z,99127.91
2022-10-05T05:43:08.740Z,99144.28
2022-10-05T05:45:42.707Z,99173.28
2022-10-05T05:48:19.416Z,99187.78
2022-10-05T05:50:52.047Z,99177.91
2022-10-05T05:53:34.284Z,99186.94
2022-10-05T05:56:10.722Z,99180.66
2022-10-05T05:59:02.525Z,99166.16
2022-10-05T06:01:44.338Z,99164.47
2022-10-05T06:04:15.113Z,99168.03
2022-10-05T06:06:45.100Z,99169.13
2022-10-05T06:09:35.959Z,99168.88
2022-10-05T06:12:23.120Z,99180.88
2022-10-05T06:15:01.271Z,99197.25
2022-10-05T06:17:30.971Z,99194.78
2022-10-05T06:20:05.260Z,99199.41
2022-10-05T06:22:41.681Z,99188.47
2022-10-05T06:25:15.166Z,99186.34
2022-10-05T06:28:16.786Z,99177.91
2022-10-05T06:30:54.259Z,99167.84
2022-10-05T06:33:45.579Z,99167.84
2022-10-05T06:36:18.750Z,99159.63
2022-10-05T06:38:45.634Z,99173.28
2022-10-05T06:41:43.253Z,99196.00
2022-10-05T06:44:16.940Z,99195.16
2022-10-05T06:46:53.545Z,99193.25
2022-10-05T06:49:29.729Z,99195.16
2022-10-05T06:52:03.663Z,99198.72
2022-10-05T06:55:23.266Z,99207.75
2022-10-05T06:58:18.970Z,99200.16
2022-10-05T07:00:55.635Z,99189.22
2022-10-05T07:03:26.568Z,99181.66
2022-10-05T07:06:12.207Z,99185.44
2022-10-05T07:08:48.056Z,99178.28
2022-10-05T07:11:26.901Z,99177.22
2022-10-05T07:14:14.071Z,99187.09
2022-10-05T07:16:49.674Z,99183.06
2022-10-05T07:19:19.356Z,99179.28
2022-10-05T07:21:46.437Z,99178.22
2022-10-05T07:24:13.439Z,99165.41
2022-10-05T07:26:46.267Z,99164.34
2022-10-05T07:29:36.915Z,99178.59
2022-10-05T07:32:24.932Z,99164.34
2022-10-05T07:34:55.100Z,99181.31
2022-10-05T07:37:54.548Z,99183.22
2022-10-05T07:40:26.837Z,99184.06
2022-10-05T07:43:05.754Z,99193.72
2022-10-05T07:45:55.867Z,99183.84
2022-10-05T07:48:48.886Z,99185.28
2022-10-05T07:51:30.135Z,99195.97
2022-10-05T07:54:21.866Z,99196.19
2022-10-05T07:57:12.730Z,99188.63
2022-10-05T07:59:44.973Z,99183.75
2022-10-05T08:02:26.735Z,99189.00
2022-10-05T08:05:22.636Z,99187.94
2022-10-05T08:07:52.531Z,99188.53
2022-10-05T08:10:36.927Z,99201.13
2022-10-05T08:13:19.827Z,99185.56
2022-10-05T08:15:49.385Z,99206.38
2022-10-05T08:18:37.939Z,99212.44
2022-10-05T08:21:06.411Z,99208.66
2022-10-05T08:23:44.841Z,99210.31
2022-10-05T08:26:17.377Z,99203.78
2022-10-05T08:28:56.595Z,99201.91
2022-10-05T08:31:25.220Z,99212.59
2022-10-05T08:33:52.877Z,99211.75
2022-10-05T08:36:41.731Z,99210.69
2022-10-05T08:39:13.377Z,99206.91
2022-10-05T08:41:55.237Z,99202.28
2022-10-05T08:44:59.586Z,99204.16
2022-10-05T08:48:00.614Z,99200.59
2022-10-05T08:50:33.092Z,99207.75
2022-10-05T08:53:15.534Z,99207.75
2022-10-05T08:55:56.250Z,99204.75
2022-10-05T08:58:32.309Z,99207.75
2022-10-05T09:01:05.247Z,99206.69
2022-10-05T09:03:34.761Z,99207.25
2022-10-05T09:06:14.709Z,99203.69
2022-10-05T09:09:03.419Z,99199.91
2022-10-05T09:11:36.403Z,99203.47
2022-10-05T09:14:24.947Z,99198.00
2022-10-05T09:17:22.570Z,99195.03
2022-10-05T09:20:31.061Z,99190.38
2022-10-05T09:22:59.655Z,99195.84
2022-10-05T09:25:59.053Z,99188.50
2022-10-05T09:28:34.681Z,99191.00
2022-10-05T09:31:13.914Z,99193.75
2022-10-05T09:33:55.321Z,99193.75
2022-10-05T09:36:48.023Z,99189.94
2022-10-05T09:39:20.895Z,99185.31
2022-10-05T09:42:14.575Z,99186.13
2022-10-05T09:44:47.296Z,99185.06
2022-10-05T09:47:41.834Z,99186.13
2022-10-05T09:50:23.106Z,99193.88
2022-10-05T09:53:10.203Z,99194.94
2022-10-05T09:56:09.646Z,99190.31
2022-10-05T09:59:05.931Z,99193.88
2022-10-05T10:02:05.179Z,99197.47
2022-10-05T10:04:40.924Z,99196.38
2022-10-05T10:07:41.519Z,99201.84
2022-10-05T10:10:14.290Z,99194.47
2022-10-05T10:12:57.219Z,99182.69
2022-10-05T10:15:52.786Z,99192.56
2022-10-05T10:18:38.474Z,99189.84
2022-10-05T10:21:34.103Z,99198.03
2022-10-05T10:24:38.323Z,99202.47
2022-10-05T10:27:16.640Z,99202.47
2022-10-05T10:29:43.453Z,99197.81
2022-10-05T10:32:31.966Z,99200.34
2022-10-05T10:35:19.643Z,99203.88
2022-10-05T10:38:20.165Z,99207.44
2022-10-05T10:40:52.704Z,99194.63
2022-10-05T10:43:31.550Z,99196.50
2022-10-05T10:46:23.410Z,99189.97
2022-10-05T10:48:57.836Z,99188.13
2022-10-05T10:51:39.994Z,99189.81
2022-10-05T10:54:35.452Z,99192.53
2022-10-05T10:57:13.872Z,99187.06
2022-10-05T10:59:44.172Z,99189.81
2022-10-05T11:02:33.071Z,99184.31
2022-10-05T11:05:27.623Z,99195.25
2022-10-05T11:08:36.511Z,99187.06
2022-10-05T11:11:07.589Z,99186.00
2022-10-05T11:13:56.303Z,99187.91
2022-10-05T11:16:56.389Z,99186.00
2022-10-05T11:19:39.941Z,99178.84
2022-10-05T11:22:30.525Z,99192.28
2022-10-05T11:25:04.040Z,99186.81
2022-10-05T11:27:42.791Z,99180.53
2022-10-05T11:30:20.011Z,99179.69
2022-10-05T11:33:19.066Z,99182.44
2022-10-05T11:36:10.296Z,99179.44
2022-10-05T11:38:58.552Z,99183.84
2022-10-05T11:42:02.725Z,99171.00
2022-10-05T11:44:48.404Z,99172.69
2022-10-05T11:47:33.958Z,99164.50
2022-10-05T11:50:06.745Z,99161.50
2022-10-05T11:52:40.677Z,99167.81
2022-10-05T11:55:24.399Z,99170.31
2022-10-05T11:58:05.688Z,99170.31
2022-10-05T12:00:40.791Z,99153.91
2022-10-05T12:03:22.660Z,99148.44
2022-10-05T12:05:55.882Z,99155.59
2022-10-05T12:08:43.849Z,99154.53
2022-10-05T12:11:37.312Z,99158.06
2022-10-05T12:14:08.426Z,99154.28
2022-10-05T12:16:51.555Z,99149.63
2022-10-05T12:19:24.113Z,99140.38
2022-10-05T12:22:01.886Z,99126.47
2022-10-05T12:24:55.960Z,99112.78
2022-10-05T12:27:25.721Z,99103.28
2022-10-05T12:30:04.456Z,99116.94
2022-10-05T12:33:00.920Z,99126.84
2022-10-05T12:35:55.917Z,99118.38
2022-10-05T12:38:47.523Z,99106.63
2022-10-05T12:41:38.835Z,99114.56
2022-10-05T12:44:31.944Z,99109.09
2022-10-05T12:47:09.711Z,99102.78
2022-10-05T12:49:45.980Z,99109.94
2022-10-05T12:52:28.298Z,99106.13
2022-10-05T12:55:02.953Z,99106.13
2022-10-05T12:57:35.700Z,99098.50
2022-10-05T13:00:11.920Z,99094.72
2022-10-05T13:02:47.350Z,99094.72
2022-10-05T13:05:22.503Z,99095.56
2022-10-05T13:08:07.477Z,99096.38
2022-10-05T13:10:35.884Z,99109.00
2022-10-05T13:13:27.388Z,99098.06
2022-10-05T13:16:16.752Z,99095.91
2022-10-05T13:19:11.567Z,99095.91
2022-10-05T13:22:10.236Z,99094.00
2022-10-05T13:24:53.006Z,99091.28
2022-10-05T13:27:24.921Z,99084.97
2022-10-05T13:29:56.602Z,99079.50
2022-10-05T13:32:27.719Z,99082.22
2022-10-05T13:35:11.418Z,99087.47
2022-10-05T13:37:44.321Z,99088.31
2022-10-05T13:40:55.592Z,99088.31
2022-10-05T13:43:45.157Z,99078.19
2022-10-05T13:46:33.427Z,99078.19
2022-10-05T13:49:29.623Z,99073.56
2022-10-05T13:52:09.031Z,99070.84
2022-10-05T13:55:11.456Z,99071.63
2022-10-05T13:57:57.755Z,99061.53
2022-10-05T14:00:26.910Z,99056.06
2022-10-05T14:02:56.763Z,99057.72
2022-10-05T14:05:25.378Z,99055.00
2022-10-05T14:08:04.354Z,99051.19
2022-10-05T14:10:34.519Z,99050.13
2022-10-05T14:13:02.500Z,99039.75
2022-10-05T14:15:39.806Z,99042.50
2022-10-05T14:18:25.711Z,99045.84
2022-10-05T14:21:11.383Z,99051.91
2022-10-05T14:23:38.586Z,99049.41
2022-10-05T14:26:18.838Z,99045.59
2022-10-05T14:29:17.640Z,99046.44
2022-10-05T14:31:54.589Z,99043.47
2022-10-05T14:34:57.647Z,99056.09
2022-10-05T14:37:26.407Z,99065.13
2022-10-05T14:39:55.045Z,99051.44
2022-10-05T14:42:27.455Z,99050.59
2022-10-05T14:45:12.004Z,99048.72
2022-10-05T14:48:00.846Z,99048.72
2022-10-05T14:50:32.318Z,99045.97
2022-10-05T14:53:18.005Z,99045.97
2022-10-05T14:55:55.948Z,99050.59
2022-10-05T14:58:57.377Z,99045.13
2022-10-05T15:01:31.913Z,99040.72
2022-10-05T15:04:01.617Z,99035.47
2022-10-05T15:06:58.426Z,99032.75
2022-10-05T15:09:41.103Z,99035.47
2022-10-05T15:12:08.060Z,99037.16
2022-10-05T15:14:40.365Z,99020.97
2022-10-05T15:17:31.403Z,99030.00
2022-10-05T15:20:19.365Z,99022.88
2022-10-05T15:23:15.579Z,99019.91
2022-10-05T15:26:07.951Z,99010.84
2022-10-05T15:28:39.586Z,99017.16
2022-10-05T15:31:19.531Z,98999.91
2022-10-05T15:33:55.719Z,99011.94
2022-10-05T15:36:24.384Z,99008.94
2022-10-05T15:39:13.187Z,99008.13
2022-10-05T15:42:13.147Z,98998.25
2022-10-05T15:45:15.239Z,98997.16
2022-10-05T15:47:53.440Z,98993.84
2022-10-05T15:50:32.559Z,98995.53
2022-10-05T15:53:15.529Z,98991.94
2022-10-05T15:55:47.898Z,98990.06
2022-10-05T15:58:39.390Z,98998.25
2022-10-05T16:01:16.424Z,98998.25
2022-10-05T16:03:58.418Z,99001.00
2022-10-05T16:06:52.109Z,99001.00
2022-10-05T16:09:41.339Z,99008.38
2022-10-05T16:12:19.331Z,98999.31
2022-10-05T16:14:56.039Z,98998.50
2022-10-05T16:17:45.202Z,99005.03
2022-10-05T16:20:23.397Z,99009.44
2022-10-05T16:23:22.502Z,99009.66
2022-10-05T16:26:04.192Z,99000.63
2022-10-05T16:28:43.131Z,99004.44
2022-10-05T16:31:49.358Z,99000.38
2022-10-05T16:34:31.053Z,99003.75
2022-10-05T16:37:00.854Z,99010.63
2022-10-05T16:39:48.765Z,99003.03
2022-10-05T16:42:42.202Z,99003.38
2022-10-05T16:45:26.483Z,99000.13
2022-10-05T16:47:56.667Z,99002.38
2022-10-05T16:50:49.192Z,98993.72
2022-10-05T16:53:39.293Z,98993.44
2022-10-05T16:56:20.030Z,98989.41
2022-10-05T16:58:52.722Z,98995.47
2022-10-05T17:01:22.371Z,98998.59
2022-10-05T17:04:09.229Z,98990.09
2022-10-05T17:06:55.614Z,98987.97
2022-10-05T17:09:59.924Z,98983.06
2022-10-05T17:12:42.964Z,98981.78
2022-10-05T17:15:31.778Z,98987.81
2022-10-05T17:18:20.022Z,98986.53
2022-10-05T17:20:55.716Z,98978.88
2022-10-05T17:23:31.423Z,98978.44
2022-10-05T17:26:04.406Z,98982.78
2022-10-05T17:29:13.334Z,98980.66
2022-10-05T17:32:08.657Z,98985.66
2022-10-05T17:34:37.838Z,98979.97
2022-10-05T17:37:23.405Z,98986.06
2022-10-05T17:39:51.719Z,98990.19
2022-10-05T17:42:30.578Z,98989.13
2022-10-05T17:45:02.797Z,98984.22
2022-10-05T17:47:57.970Z,98993.03
2022-10-05T17:51:02.840Z,98980.75
2022-10-05T17:54:03.729Z,98983.25
2022-10-05T17:56:56.364Z,98981.91
2022-10-05T17:59:46.514Z,98995.38
2022-10-05T18:02:22.310Z,98981.47
2022-10-05T18:05:06.939Z,98990.00
2022-10-05T18:07:35.085Z,98987.88
2022-10-05T18:10:15.600Z,98988.22
2022-10-05T18:13:19.076Z,98986.88
2022-10-05T18:15:48.797Z,98991.06
2022-10-05T18:18:42.818Z,98985.31
2022-10-05T18:21:16.752Z,98988.66
2022-10-05T18:23:58.731Z,98994.47
2022-10-05T18:26:32.143Z,98996.97
2022-10-05T18:29:46.485Z,99009.34
2022-10-05T18:32:35.144Z,99016.47
2022-10-05T18:35:16.418Z,99012.41
2022-10-05T18:38:22.656Z,99015.75
2022-10-05T18:41:15.825Z,99003.72
2022-10-05T18:44:19.953Z,98997.13
2022-10-05T18:47:20.949Z,98999.63
2022-10-05T18:49:53.737Z,99010.59
2022-10-05T18:52:30.187Z,99010.38
2022-10-05T18:55:26.346Z,99018.59
2022-10-05T18:57:58.488Z,99010.59
2022-10-05T19:00:26.271Z,99009.78
2022-10-05T19:03:00.598Z,99007.03
2022-10-05T19:05:47.515Z,99010.59
2022-10-05T19:08:39.405Z,99004.56
2022-10-05T19:11:28.586Z,99005.63
2022-10-05T19:14:45.457Z,99010.28
2022-10-05T19:17:43.187Z,99011.34
2022-10-05T19:20:17.601Z,99017.91
2022-10-05T19:22:57.712Z,99016.25
2022-10-05T19:25:51.628Z,99020.91
2022-10-05T19:28:24.734Z,99024.72
2022-10-05T19:31:00.286Z,99024.94
2022-10-05T19:34:04.375Z,99022.19
2022-10-05T19:37:10.172Z,99022.19
2022-10-05T19:39:58.903Z,99022.69
2022-10-05T19:42:38.331Z,99019.13
2022-10-05T19:45:20.406Z,99033.91
2022-10-05T19:48:27.253Z,99015.78
2022-10-05T19:50:58.567Z,99029.50
2022-10-05T19:53:36.573Z,99024.28
2022-10-05T19:56:22.976Z,99019.84
2022-10-05T19:58:50.484Z,99022.00
2022-10-05T20:01:42.111Z,99026.41
2022-10-05T20:04:09.929Z,99031.31
2022-10-05T20:06:39.566Z,99031.31
2022-10-05T20:09:20.072Z,99033.22
2022-10-05T20:11:53.319Z,99027.97
2022-10-05T20:14:21.897Z,99027.41
2022-10-05T20:17:07.648Z,99024.66
2022-10-05T20:19:53.340Z,99033.13
2022-10-05T20:22:38.245Z,99031.44
2022-10-05T20:25:06.557Z,99044.31
2022-10-05T20:27:43.902Z,99034.44
2022-10-05T20:30:15.831Z,99033.63
2022-10-05T20:32:43.842Z,99032.78
2022-10-05T20:35:10.899Z,99022.06
2022-10-05T20:37:37.809Z,99026.69
2022-10-05T20:40:05.839Z,99021.47
2022-10-05T20:42:32.843Z,99034.34
2022-10-05T20:44:59.803Z,99024.44
2022-10-05T20:47:26.978Z,99022.56
2022-10-05T20:49:54.805Z,99024.44
2022-10-05T20:52:22.600Z,99027.19
2022-10-05T20:54:54.048Z,99024.69
2022-10-05T20:57:24.495Z,99024.94
2022-10-05T20:59:51.699Z,99020.28
2022-10-05T21:02:21.412Z,99023.28
2022-10-05T21:04:48.420Z,99021.59
2022-10-05T21:07:16.727Z,99027.91
2022-10-05T21:09:44.840Z,99023.75
2022-10-05T21:12:11.801Z,99025.69
2022-10-05T21:14:38.979Z,99021.28
2022-10-05T21:17:06.935Z,99022.34
2022-10-05T21:19:40.600Z,99022.56
2022-10-05T21:22:08.739Z,99028.03
2022-10-05T21:24:36.930Z,99030.78
2022-10-05T21:27:04.335Z,99022.84
2022-10-05T21:29:31.438Z,99030.44
2022-10-05T21:31:58.406Z,99041.63
2022-10-05T21:34:25.461Z,99029.88
2022-10-05T21:36:52.818Z,99035.56
2022-10-05T21:39:19.825Z,99044.81
2022-10-05T21:41:48.709Z,99033.31
2022-10-05T21:44:16.860Z,99032.94
2022-10-05T21:46:43.859Z,99038.66
2022-10-05T21:49:10.825Z,99030.91
2022-10-05T21:51:37.855Z,99039.13
2022-10-05T21:54:14.654Z,99034.97
2022-10-05T21:56:43.697Z,99038.56
2022-10-05T21:59:11.540Z,99038.56
2022-10-05T22:01:38.538Z,99042.34
2022-10-05T22:04:05.856Z,99032.47
2022-10-05T22:06:33.524Z,99034.13
2022-10-05T22:09:00.636Z,99028.06
2022-10-05T22:11:29.154Z,99032.97
2022-10-05T22:14:02.402Z,99034.88
2022-10-05T22:16:34.299Z,99029.63
2022-10-05T22:19:10.830Z,99035.34
2022-10-05T22:21:41.914Z,99027.38
2022-10-05T22:24:09.499Z,99035.00
2022-10-05T22:26:36.460Z,99035.25
2022-10-05T22:29:03.556Z,99034.41
2022-10-05T22:31:30.547Z,99038.47
2022-10-05T22:33:57.536Z,99037.25
2022-10-05T22:36:24.510Z,99034.16
2022-10-05T22:38:51.470Z,99038.56
2022-10-05T22:41:18.598Z,99047.63
2022-10-05T22:43:48.908Z,99034.16
2022-10-05T22:46:16.150Z,99040.97
2022-10-05T22:48:43.475Z,99043.44
2022-10-05T22:51:10.570Z,99039.06
2022-10-05T22:53:37.533Z,99043.69
2022-10-05T22:56:08.666Z,99050.00
2022-10-05T22:58:36.031Z,99045.84
2022-10-05T23:01:04.457Z,99057.03
2022-10-05T23:03:32.134Z,99045.47
2022-10-05T23:06:03.227Z,99051.44
2022-10-05T23:08:33.499Z,99050.84
2022-10-05T23:11:02.520Z,99070.00
2022-10-05T23:13:29.864Z,99064.16
2022-10-05T23:15:57.146Z,99073.44
2022-10-05T23:18:24.123Z,99080.81
2022-10-05T23:20:57.535Z,99084.88
2022-10-05T23:23:25.731Z,99092.81
2022-10-05T23:25:52.689Z,99089.50
2022-10-05T23:28:19.781Z,99102.13
2022-10-05T23:30:46.715Z,99103.19
2022-10-05T23:33:13.746Z,99106.75
2022-10-05T23:35:40.635Z,99103.75
2022-10-05T23:38:07.631Z,99104.84
2022-10-05T23:40:34.552Z,99103.75
2022-10-05T23:43:01.476Z,99098.28
2022-10-05T23:45:28.389Z,99100.44
2022-10-05T23:47:55.427Z,99114.34
2022-10-05T23:50:25.089Z,99111.88
2022-10-05T23:52:52.103Z,99116.50
2022-10-05T23:55:19.079Z,99122.22
2022-10-05T23:57:46.040Z,99124.34
